Terminal Aerodrome Forecast
Issued by NWS Sterling, VA

Current Version | Previous Version | Graphics & Text | Print | Product List | Glossary On
Versions: 1 2 3 4 5 6 7 8 9 10 11 12 13 14 15 16 17 18 19 20 21 22 23 24 25 26 27 28 29 30
000
FTUS41 KLWX 191720
TAFIAD
TAF
KIAD 191720Z 1918/2024 29006KT P6SM SCT025 BKN200
     FM192200 VRB03KT P6SM SCT025 BKN250
     FM200900 VRB03KT P6SM SCT003 OVC030
     FM201300 14004KT 3SM -RA SCT003 OVC015
     FM201500 16006KT 1 1/2SM -RA SCT003 OVC010
     FM202000 16006KT P6SM SCT003 OVC010=

USA.gov is the U.S. government's official web portal to all federal, state and local government web resources and services.